NWS Home NWS Lubbock West Texas Mesonet Central Sector Latest Conditions as of 0709 PM, Sun Mar 29, 2020

Latest   N   C   S   Daily Sum   3hrΔ   24hrΔ   Soil Data 
Site Map   24hr Precip   72hr Precip   Google Plot


Station Time of Last Temp Dew Pt. RH Wind Direction Wind Speed Wind Gust Max Wind Max Temp Min Temp Max RH Min RH Altimeter 1HR Rain Today's Rain Solar Rad Red Flag
Abernathy 5ENE  07:05 PM 64 30 28% SE1518 23 mph 146° @ 0530 PM 67 33 81 19 30.06" 0 0.00 89  
Aiken 3WSW  07:05 PM 63 30 29% SE1618 28 mph 138° @ 0612 PM 69 29 84 15 30.08" 0 0.00 103  
Amherst 1NE  07:05 PM 64 24 22% SE1722 28 mph 157° @ 0235 PM 69 33 74 14 30.04" 0 0.00 86  
Anton 6SSW  07:05 PM 64 25 23% SE1925 28 mph 170° @ 0150 PM 68 32 74 15 30.05" 0 0.00 88  
Aspermont 3NE  07:05 PM 67 42 41% SE1013 19 mph 345° @ 1235 AM 72 37 89 29 30.08" 0 0.00 70  
Bootleg 11WNW  07:05 PM 62 19 19% S1822 30 mph 203° @ 0332 PM 66 30 79 17 30.05" 0 0.00 101  
Brownfield 2S  07:05 PM 65 25 22% SE2024 28 mph 158° @ 0610 PM 68 38 67 17 30.04" 0 0.00 105  
Caprock Canyons State Park  07:00 PM 65 33 30% SE1316 24 mph 156° @ 0533 PM 70 35 85 21 30.07" 0 0.00 124  
Childress 2NNE  07:05 PM 65 39 40% SE1316 23 mph 132° @ 0550 PM 71 37 80 24 30.08" 0 0.00 80  
Clarendon 2WSW  07:05 PM 64 30 27% SE1620 21 mph 173° @ 0525 PM 68 33 82 25 30.06" 0 0.00 100  
Claude 12SW  07:05 PM 64 22 20% S1320 24 mph 142° @ 0430 PM 68 35 73 19 30.05" 0 0.00 86  
Comanche Springs  07:05 PM 66 42 41% SE913 19 mph 126° @ 0439 PM 69 31 94 31 30.08" 0 0.00 95  
Crowell 1E  07:05 PM 66 43 44% SE710 15 mph 131° @ 0406 PM 70 43 73 36 30.09" 0 0.00 67  
Denver City 7WNW  07:05 PM 64 21 19% SE1620 28 mph 157° @ 0510 PM 67 34 70 15 30.03" 0 0.00 101  
Dimmitt 2NE  07:05 PM 61 26 26% SE1723 27 mph 182° @ 0340 PM 67 30 84 18 30.05" 0 0.00 93  
Dora NM 2SW  07:05 PM 61 17 18% S2026 28 mph 155° @ 0650 PM 69 33 57 11 30.03" 0 0.00 68 5
Earth 9WSW  07:05 PM 64 20 19% SE1719 27 mph 160° @ 0625 PM 70 28 78 13 30.05" 0 0.00 77 4
Estelline 3SSE  07:05 PM 66 37 34% SE1416 18 mph 148° @ 0547 PM 72 38 75 22 30.07" 0 0.00 84  
Floydada 2NNE  07:05 PM 63 31 30% SE1216 19 mph 149° @ 0350 PM 69 30 85 15 30.07" 0 0.00 84  
Fluvanna 3WNW  07:05 PM 65 27 24% SE1420 22 mph 132° @ 0405 PM 70 41 67 18 30.06" 0 0.00 65  
Friona 2NE  07:05 PM 62 24 23% S1216 29 mph 159° @ 0515 PM 67 26 92 17 30.04" 0 0.00 91  
Gail 2ESE  07:05 PM 65 26 23% SE1117 20 mph 138° @ 0355 PM 71 37 73 18 30.06" 0 0.00 59  
Goodlett 3W  07:05 PM 66 40 40% SE1316 20 mph 131° @ 0455 PM 70 40 79 28 30.07" 0 0.00 93  
Graham 5SSW  07:05 PM 65 26 23% SE1421 25 mph 151° @ 0650 PM 69 42 60 15 30.05" 0 0.00 95  
Guthrie 10WSW  07:05 PM 67 37 33% SE811 21 mph 129° @ 0435 PM 71 39 74 25 30.06" 0 0.00 68  
Hackberry 2SSE  07:05 PM 66 41 39% SE911 18 mph 89° @ 0358 PM 70 39 82 31 30.08" 0 0.00 66  
Happy 1E  07:05 PM 62 25 24% S2022 29 mph 191° @ 0316 PM 68 30 82 19 30.06" 0 0.00 98  
Hart 3N  07:05 PM 63 25 24% SE1723 25 mph 143° @ 0655 PM 68 29 92 16 30.05" 0 0.00 93  
Haskell 1NW  07:05 PM 66 44 46% SE912 22 mph 29° @ 0105 AM 71 41 89 32 30.08" 0 0.00 50  
Hefner 1SW  07:05 PM 65 45 48% SE1011 18 mph 14° @ 1202 AM 70 42 89 38 30.09" 0 0.00 56  
Hereford 2NW  07:05 PM 63 22 20% SE1422 24 mph 174° @ 0505 PM 66 26 89 18 30.03" 0 0.00 86  
Hobbs NM 5NW  07:05 PM 65 19 17% SE1214 23 mph 159° @ 0546 PM 67 37 67 13 30.05" 0 0.00 79  
Jayton 1SSE  07:05 PM 67 38 35% SE1116 22 mph 135° @ 0525 PM 71 38 85 25 30.07" 0 0.00 68  
Knox City 3NW  07:05 PM 64 46 53% SE1012 15 mph 117° @ 0540 PM 71 38 94 41 30.08" 0 0.00 59  
Lake Alan Henry 1NW  07:05 PM 66 39 37% SE912 20 mph 117° @ 0344 PM 73 39 81 23 30.06" 0 0.00 60  
Lamesa 2SE  07:05 PM 65 20 18% SE1318 25 mph 152° @ 0410 PM 71 38 71 16 30.06" 0 0.00 70  
Lesley 2S  07:05 PM 67 33 28% SE1517 23 mph 148° @ 0628 PM 72 35 81 22 30.06" 0 0.00 101  
Levelland 4S  07:05 PM 65 26 22% SE1923 26 mph 169° @ 0435 PM 68 36 67 15 30.04" 0 0.00 103  
Lubbock 3WNW TTU  07:05 PM 65 24 21% SE1216 26 mph 154° @ 0310 PM 69 35 73 17 30.06" 0 0.00 95  
McAdoo 3NNW  07:05 PM 63 36 36% SE1516 24 mph 51° @ 1251 AM 68 38 77 22 30.08" 0 0.00 102  
Memphis 1NE  07:05 PM 68 32 27% SE1317 19 mph 120° @ 0435 PM 70 33 88 22 30.06" 0 0.00 90  
Morton 1ENE  07:05 PM 65 19 17% SE1418 26 mph 158° @ 0235 PM 69 33 60 11 30.03" 0 0.00 82  
Muleshoe 2SSW  07:05 PM 64 19 18% S1923 28 mph 168° @ 0330 PM 69 27 89 12 30.04" 0 0.00 104  
New Home  07:05 PM 65 29 25% S1218 22 mph 183° @ 0244 PM 68 38 65 17 30.07" 0 0.00 138  
Northfield 1S  07:05 PM 66 34 32% SE1216 21 mph 136° @ 0435 PM 72 33 85 22 30.07" 0 0.00 71  
O'Donnell 1N  07:05 PM 65 27 24% SE1421 22 mph 144° @ 0435 PM 69 38 67 19 30.06" 0 0.00 77  
Odell 4ENE  07:00 PM 65 45 47% SE911 18 mph 145° @ 0519 PM 69 37 92 31 30.09" 0 0.00 67  
Olton 6S  07:05 PM 62 25 24% SE1520 26 mph 152° @ 0510 PM 68 29 88 17 30.06" 0 0.00 89  
Paducah 10SW  07:05 PM 66 38 37% SE1216 19 mph 123° @ 0455 PM 70 41 72 27 30.07" 0 0.00 81  
Palo Duro 4E (JA Ranch)  07:05 PM 65 33 31% SE1720 24 mph 136° @ 0648 PM 69 29 91 25 30.06" 0 0.00 97  
Palo Duro Canyon SP Floor  07:05 PM 68 23 18% S1115 23 mph 134° @ 0458 PM 72 32 79 15 30.04" 0 0.00 84  
Palo Duro Canyon State Park Rim  07:05 PM 64 21 19% S1316 22 mph 194° @ 0356 PM 70 32 75 17 30.06" 0 0.00 112  
Plains 3N  07:05 PM 64 24 22% SE1824 25 mph 154° @ 0135 PM 67 34 68 17 30.04" 0 0.00 93  
Plainview 1S  07:05 PM 63 30 29% SE1420 23 mph 157° @ 0310 PM 68 35 80 19 30.06" 0 0.00 91  
Post 1NE  07:05 PM 67 25 20% SE1216 21 mph 143° @ 0645 PM 72 41 60 15 30.05" 0 0.00 89  
Ralls 1SE  07:05 PM 64 28 26% SE1317 23 mph 139° @ 0325 PM 66 34 75 19 30.07" 0 0.00 93  
Reese Center  07:05 PM 65 24 21% SE1923 31 mph 171° @ 0136 PM 69 35 71 15 30.05" 0 0.00 78  
Roaring Springs 3N  07:05 PM 64 39 41% SE1418 19 mph 166° @ 1255 PM 68 37 87 25 30.07" 0 0.00 83  
Rotan 5W  07:05 PM 67 32 27% E1415 26 mph 338° @ 0125 AM 70 44 72 26 30.08" 0 0.00 43  
Seagraves 1SW  07:05 PM 65 24 20% SE1422 25 mph 159° @ 0430 PM 69 33 69 17 30.03" 0 0.00 112  
Seminole 2NNE  07:05 PM 65 22 19% SE1723 24 mph 150° @ 0540 PM 69 37 62 15 30.03" 0 0.00 105  
Seymour 3NW  07:05 PM 64 47 56% SE810 15 mph 114° @ 0515 PM 70 40 95 40 30.09" 0 0.00 58  
Silverton 7ESE  07:05 PM 63 30 29% SE1519 23 mph 145° @ 0450 PM 69 28 88 18 30.07" 0 0.00 100  
Slaton 2NE  07:05 PM 65 28 25% SE1620 22 mph 152° @ 0655 PM 67 38 74 23 30.06" 0 0.00 97  
Smyer  07:05 PM 65 25 22% SE1218 24 mph 158° @ 0241 PM 69 37 66 14 30.05" 0 0.00 91  
Snyder 3E  06:55 PM 65 28 25% SE1115 23 mph 3° @ 0210 AM 73 40 71 18 30.08" 0 0.00 49  
Snyder 3SSW  07:05 PM 65 33 30% SE89 20 mph 145° @ 0511 PM 72 43 72 18 30.08" 0 0.00 57  
South Plains 3ENE  07:05 PM 63 32 31% SE1214 32 mph 139° @ 0359 PM 69 29 90 18 30.07" 0 0.00 94  
Spur 1W  07:05 PM 66 33 30% SE1014 19 mph 147° @ 0645 PM 69 36 82 28 30.05" 0 0.00 105  
Stamford 5ESE  07:05 PM 66 45 46% E910 25 mph 39° @ 0158 AM 70 42 92 36 30.09" 0 0.00 42  
Sundown 8WSW  07:05 PM 65 19 17% SE1721 28 mph 151° @ 0310 PM 70 34 64 11 30.04" 0 0.00 101  
Tahoka 3NNE  07:05 PM 65 25 22% SE1822 23 mph 137° @ 0655 PM 69 36 68 19 30.05" 0 0.00 137  
Tatum NM 2SW  07:05 PM 63 23 21% SE1418 28 mph 166° @ 0350 PM 68 33 73 15 30.03" 0 0.00 91  
Throckmorton 1SW  07:05 PM 65 46 52% SE79 21 mph 330° @ 1232 AM 71 44 89 37 30.10" 0 0.00 51  
Truscott 2SE  07:05 PM 66 46 48% E89 17 mph 14° @ 1208 AM 70 40 88 35 30.08" 0 0.00 83  
Tulia 2ENE  06:50 PM 63 27 26% SE1722 24 mph 177° @ 0450 PM 67 27 83 20 30.05" 0 0.00 141  
Turkey 2WSW  07:05 PM 65 33 31% SE1619 24 mph 125° @ 0600 PM 70 38 71 22 30.06" 0 0.00 85  
Umbarger 3NNE  07:05 PM 63 24 22% SE1619 25 mph 169° @ 0652 PM 68 24 91 17 30.05" 0 0.00 99  
Vigo Park  07:05 PM 63 26 25% SE1518 29 mph 155° @ 0352 PM 69 27 90 19 30.07" 0 0.00 89  
Weinert 2NNE  07:05 PM 66 42 41% SE1112 25 mph 8° @ 1209 AM 71 41 84 32 30.09" 0 0.00 36  
Welch  07:05 PM 65 26 23% SE1316 25 mph 137° @ 0459 PM 71 35 69 15 30.05" 0 0.00 66  
White River Lake 6NW  07:05 PM 65 33 31% SE1319 22 mph 111° @ 0635 PM 69 39 68 21 30.05" 0 0.00 94  
Wolfforth 6SSW  07:05 PM 65 28 25% SE1722 25 mph 159° @ 0240 PM 69 36 68 15 30.05" 0 0.00 104  

West Texas Mesonet Home   Site Map/Menu  NWS Lubbock Soil Data  Daily Summary Page  24hr Precip  72hr Precip  Google Plot